sensor_id;sensor_type;location;lat;lon;timestamp;P1;durP1;ratioP1;P2;durP2;ratioP2
23590;SDS011;11973;52.098;7.582;2023-09-12T04:16:38;14.63;;;13.32;;
23590;SDS011;11973;52.098;7.582;2023-09-12T04:19:04;13.93;;;12.73;;
23590;SDS011;11973;52.098;7.582;2023-09-12T04:21:30;13.30;;;12.18;;
23590;SDS011;11973;52.098;7.582;2023-09-12T04:23:55;13.68;;;12.30;;
23590;SDS011;11973;52.098;7.582;2023-09-12T04:26:21;13.70;;;12.20;;
23590;SDS011;11973;52.098;7.582;2023-09-12T04:28:47;13.43;;;12.20;;
23590;SDS011;11973;52.098;7.582;2023-09-12T04:31:13;11.98;;;10.77;;
23590;SDS011;11973;52.098;7.582;2023-09-12T04:33:40;12.00;;;11.07;;
23590;SDS011;11973;52.098;7.582;2023-09-12T04:36:05;11.60;;;10.88;;
23590;SDS011;11973;52.098;7.582;2023-09-12T04:38:31;11.05;;;10.15;;
23590;SDS011;11973;52.098;7.582;2023-09-12T04:41:01;10.27;;;9.73;;
23590;SDS011;11973;52.098;7.582;2023-09-12T04:43:30;10.50;;;9.65;;
23590;SDS011;11973;52.098;7.582;2023-09-12T04:45:56;10.00;;;9.38;;
23590;SDS011;11973;52.098;7.582;2023-09-12T04:48:22;14.70;;;10.45;;
23590;SDS011;11973;52.098;7.582;2023-09-12T04:50:48;10.45;;;9.45;;
23590;SDS011;11973;52.098;7.582;2023-09-12T04:53:14;8.70;;;8.13;;
23590;SDS011;11973;52.098;7.582;2023-09-12T04:55:40;9.48;;;8.63;;
23590;SDS011;11973;52.098;7.582;2023-09-12T04:58:06;9.70;;;8.95;;
23590;SDS011;11973;52.098;7.582;2023-09-12T05:00:34;19.65;;;10.77;;
23590;SDS011;11973;52.098;7.582;2023-09-12T05:03:01;10.63;;;9.63;;
23590;SDS011;11973;52.098;7.582;2023-09-12T05:05:29;10.63;;;9.73;;
23590;SDS011;11973;52.098;7.582;2023-09-12T05:07:55;10.88;;;9.40;;
23590;SDS011;11973;52.098;7.582;2023-09-12T05:10:21;9.90;;;9.05;;
23590;SDS011;11973;52.098;7.582;2023-09-12T05:12:47;9.55;;;8.77;;
23590;SDS011;11973;52.098;7.582;2023-09-12T05:15:13;11.50;;;9.40;;
23590;SDS011;11973;52.098;7.582;2023-09-12T05:17:39;12.45;;;9.93;;
23590;SDS011;11973;52.098;7.582;2023-09-12T05:20:05;11.35;;;10.10;;
23590;SDS011;11973;52.098;7.582;2023-09-12T05:22:31;10.35;;;9.73;;
23590;SDS011;11973;52.098;7.582;2023-09-12T05:24:57;9.48;;;8.80;;
23590;SDS011;11973;52.098;7.582;2023-09-12T05:27:23;11.65;;;10.50;;
23590;SDS011;11973;52.098;7.582;2023-09-12T05:29:49;13.57;;;10.73;;
23590;SDS011;11973;52.098;7.582;2023-09-12T05:32:14;11.05;;;10.10;;
23590;SDS011;11973;52.098;7.582;2023-09-12T05:34:41;10.73;;;9.65;;
23590;SDS011;11973;52.098;7.582;2023-09-12T05:37:07;11.13;;;9.82;;
23590;SDS011;11973;52.098;7.582;2023-09-12T05:39:33;11.23;;;10.13;;
23590;SDS011;11973;52.098;7.582;2023-09-12T05:41:59;10.75;;;9.68;;
23590;SDS011;11973;52.098;7.582;2023-09-12T05:44:25;15.90;;;10.60;;
23590;SDS011;11973;52.098;7.582;2023-09-12T05:46:50;12.23;;;11.05;;
23590;SDS011;11973;52.098;7.582;2023-09-12T05:49:16;12.52;;;11.27;;
23590;SDS011;11973;52.098;7.582;2023-09-12T05:51:42;10.73;;;9.93;;
23590;SDS011;11973;52.098;7.582;2023-09-12T05:54:09;11.45;;;10.32;;
23590;SDS011;11973;52.098;7.582;2023-09-12T05:56:36;11.43;;;10.38;;
23590;SDS011;11973;52.098;7.582;2023-09-12T05:59:02;11.23;;;10.10;;
23590;SDS011;11973;52.098;7.582;2023-09-12T06:01:28;15.10;;;10.20;;
23590;SDS011;11973;52.098;7.582;2023-09-12T06:03:54;11.40;;;10.48;;
23590;SDS011;11973;52.098;7.582;2023-09-12T06:06:20;12.30;;;11.10;;
23590;SDS011;11973;52.098;7.582;2023-09-12T06:08:45;12.60;;;11.45;;
23590;SDS011;11973;52.098;7.582;2023-09-12T06:11:11;14.15;;;12.65;;
23590;SDS011;11973;52.098;7.582;2023-09-12T06:13:37;13.30;;;12.05;;
23590;SDS011;11973;52.098;7.582;2023-09-12T06:16:04;13.30;;;12.10;;
23590;SDS011;11973;52.098;7.582;2023-09-12T06:18:31;12.82;;;11.73;;
23590;SDS011;11973;52.098;7.582;2023-09-12T06:20:58;13.50;;;12.30;;
23590;SDS011;11973;52.098;7.582;2023-09-12T06:23:24;12.90;;;11.88;;
23590;SDS011;11973;52.098;7.582;2023-09-12T06:25:49;15.52;;;13.25;;
23590;SDS011;11973;52.098;7.582;2023-09-12T06:28:28;14.80;;;12.93;;
23590;SDS011;11973;52.098;7.582;2023-09-12T06:30:55;17.00;;;13.43;;
23590;SDS011;11973;52.098;7.582;2023-09-12T06:33:22;17.23;;;14.25;;
23590;SDS011;11973;52.098;7.582;2023-09-12T06:35:48;19.98;;;15.45;;
23590;SDS011;11973;52.098;7.582;2023-09-12T06:38:15;16.20;;;14.68;;
23590;SDS011;11973;52.098;7.582;2023-09-12T06:40:44;15.38;;;12.77;;
23590;SDS011;11973;52.098;7.582;2023-09-12T06:43:12;14.02;;;12.77;;
23590;SDS011;11973;52.098;7.582;2023-09-12T06:45:40;16.20;;;12.82;;
23590;SDS011;11973;52.098;7.582;2023-09-12T06:48:06;13.20;;;12.00;;
23590;SDS011;11973;52.098;7.582;2023-09-12T06:50:32;13.95;;;12.50;;
23590;SDS011;11973;52.098;7.582;2023-09-12T06:52:57;13.23;;;12.13;;
23590;SDS011;11973;52.098;7.582;2023-09-12T06:55:23;14.07;;;12.93;;
23590;SDS011;11973;52.098;7.582;2023-09-12T06:57:49;14.57;;;12.88;;
23590;SDS011;11973;52.098;7.582;2023-09-12T07:00:15;14.95;;;13.52;;
23590;SDS011;11973;52.098;7.582;2023-09-12T07:02:41;18.90;;;14.82;;
23590;SDS011;11973;52.098;7.582;2023-09-12T07:05:07;16.42;;;14.00;;
23590;SDS011;11973;52.098;7.582;2023-09-12T07:07:33;15.85;;;14.10;;
23590;SDS011;11973;52.098;7.582;2023-09-12T07:09:59;17.65;;;14.70;;
23590;SDS011;11973;52.098;7.582;2023-09-12T07:12:25;15.38;;;13.93;;
23590;SDS011;11973;52.098;7.582;2023-09-12T07:14:54;17.08;;;14.38;;
23590;SDS011;11973;52.098;7.582;2023-09-12T07:17:21;15.30;;;13.73;;
23590;SDS011;11973;52.098;7.582;2023-09-12T07:19:47;18.23;;;14.90;;
23590;SDS011;11973;52.098;7.582;2023-09-12T07:22:12;19.95;;;15.18;;
23590;SDS011;11973;52.098;7.582;2023-09-12T07:24:38;18.48;;;14.60;;
23590;SDS011;11973;52.098;7.582;2023-09-12T07:27:04;17.98;;;15.57;;
23590;SDS011;11973;52.098;7.582;2023-09-12T07:29:30;22.10;;;15.52;;
23590;SDS011;11973;52.098;7.582;2023-09-12T07:31:55;18.13;;;15.63;;
23590;SDS011;11973;52.098;7.582;2023-09-12T07:34:21;18.75;;;15.05;;
23590;SDS011;11973;52.098;7.582;2023-09-12T07:36:49;20.55;;;16.30;;
23590;SDS011;11973;52.098;7.582;2023-09-12T07:39:16;22.58;;;16.45;;
23590;SDS011;11973;52.098;7.582;2023-09-12T07:41:42;25.95;;;18.13;;
23590;SDS011;11973;52.098;7.582;2023-09-12T07:44:08;24.20;;;19.15;;
23590;SDS011;11973;52.098;7.582;2023-09-12T07:46:37;23.48;;;19.42;;
23590;SDS011;11973;52.098;7.582;2023-09-12T07:49:03;24.75;;;20.17;;
23590;SDS011;11973;52.098;7.582;2023-09-12T07:51:28;27.67;;;20.33;;
23590;SDS011;11973;52.098;7.582;2023-09-12T07:53:54;34.40;;;22.40;;
23590;SDS011;11973;52.098;7.582;2023-09-12T07:56:20;33.47;;;22.67;;
23590;SDS011;11973;52.098;7.582;2023-09-12T07:58:46;42.63;;;23.45;;
23590;SDS011;11973;52.098;7.582;2023-09-12T08:01:12;41.33;;;24.27;;
23590;SDS011;11973;52.098;7.582;2023-09-12T08:03:39;33.35;;;23.33;;
23590;SDS011;11973;52.098;7.582;2023-09-12T08:06:08;32.20;;;23.65;;
23590;SDS011;11973;52.098;7.582;2023-09-12T08:08:33;32.03;;;23.92;;
23590;SDS011;11973;52.098;7.582;2023-09-12T08:10:59;37.20;;;24.67;;
23590;SDS011;11973;52.098;7.582;2023-09-12T08:13:26;34.95;;;24.33;;
23590;SDS011;11973;52.098;7.582;2023-09-12T08:15:55;33.78;;;25.15;;
23590;SDS011;11973;52.098;7.582;2023-09-12T08:18:22;33.30;;;24.45;;
23590;SDS011;11973;52.098;7.582;2023-09-12T08:20:52;36.90;;;25.48;;
23590;SDS011;11973;52.098;7.582;2023-09-12T08:23:17;33.80;;;24.15;;
23590;SDS011;11973;52.098;7.582;2023-09-12T08:25:43;36.42;;;24.48;;
23590;SDS011;11973;52.098;7.582;2023-09-12T08:28:09;37.00;;;25.27;;
23590;SDS011;11973;52.098;7.582;2023-09-12T08:30:34;41.30;;;27.25;;
23590;SDS011;11973;52.098;7.582;2023-09-12T08:33:00;63.90;;;30.10;;
23590;SDS011;11973;52.098;7.582;2023-09-12T08:35:28;62.53;;;30.60;;
23590;SDS011;11973;52.098;7.582;2023-09-12T08:37:54;47.13;;;30.00;;
23590;SDS011;11973;52.098;7.582;2023-09-12T08:40:19;51.67;;;30.92;;
23590;SDS011;11973;52.098;7.582;2023-09-12T08:42:45;58.67;;;32.40;;
23590;SDS011;11973;52.098;7.582;2023-09-12T08:45:14;54.80;;;32.25;;
23590;SDS011;11973;52.098;7.582;2023-09-12T08:47:42;44.45;;;29.67;;
23590;SDS011;11973;52.098;7.582;2023-09-12T08:50:13;47.90;;;30.45;;
23590;SDS011;11973;52.098;7.582;2023-09-12T08:52:40;49.03;;;30.33;;
23590;SDS011;11973;52.098;7.582;2023-09-12T08:55:09;43.35;;;28.60;;
23590;SDS011;11973;52.098;7.582;2023-09-12T08:57:38;44.60;;;29.30;;
23590;SDS011;11973;52.098;7.582;2023-09-12T09:00:06;39.83;;;27.83;;
23590;SDS011;11973;52.098;7.582;2023-09-12T09:02:38;48.17;;;29.30;;
23590;SDS011;11973;52.098;7.582;2023-09-12T09:05:08;41.67;;;27.95;;
23590;SDS011;11973;52.098;7.582;2023-09-12T09:07:36;38.67;;;27.65;;
23590;SDS011;11973;52.098;7.582;2023-09-12T09:10:03;39.08;;;27.75;;
23590;SDS011;11973;52.098;7.582;2023-09-12T09:12:34;49.30;;;29.77;;
23590;SDS011;11973;52.098;7.582;2023-09-12T09:15:34;37.08;;;26.48;;
23590;SDS011;11973;52.098;7.582;2023-09-12T09:17:54;44.08;;;29.08;;
23590;SDS011;11973;52.098;7.582;2023-09-12T09:20:22;41.47;;;28.90;;
23590;SDS011;11973;52.098;7.582;2023-09-12T09:22:55;45.55;;;29.85;;
23590;SDS011;11973;52.098;7.582;2023-09-12T09:25:31;37.10;;;27.58;;
23590;SDS011;11973;52.098;7.582;2023-09-12T09:27:57;38.45;;;27.67;;
23590;SDS011;11973;52.098;7.582;2023-09-12T09:30:39;35.13;;;26.83;;
23590;SDS011;11973;52.098;7.582;2023-09-12T09:33:06;31.75;;;25.90;;
23590;SDS011;11973;52.098;7.582;2023-09-12T09:35:32;34.95;;;26.58;;
23590;SDS011;11973;52.098;7.582;2023-09-12T09:37:58;33.22;;;26.38;;
23590;SDS011;11973;52.098;7.582;2023-09-12T09:40:24;32.85;;;25.10;;
23590;SDS011;11973;52.098;7.582;2023-09-12T09:42:58;30.15;;;25.05;;
23590;SDS011;11973;52.098;7.582;2023-09-12T09:45:26;28.08;;;23.88;;
23590;SDS011;11973;52.098;7.582;2023-09-12T09:47:59;25.77;;;23.08;;
23590;SDS011;11973;52.098;7.582;2023-09-12T09:50:33;26.48;;;23.52;;
23590;SDS011;11973;52.098;7.582;2023-09-12T09:53:02;30.20;;;24.85;;
23590;SDS011;11973;52.098;7.582;2023-09-12T09:55:30;24.77;;;21.90;;
23590;SDS011;11973;52.098;7.582;2023-09-12T09:57:57;25.02;;;22.42;;
23590;SDS011;11973;52.098;7.582;2023-09-12T10:00:23;23.50;;;21.00;;
23590;SDS011;11973;52.098;7.582;2023-09-12T10:02:50;22.30;;;20.05;;
23590;SDS011;11973;52.098;7.582;2023-09-12T10:05:19;22.30;;;20.20;;
23590;SDS011;11973;52.098;7.582;2023-09-12T10:07:47;20.30;;;18.25;;
23590;SDS011;11973;52.098;7.582;2023-09-12T10:10:16;18.92;;;17.10;;
23590;SDS011;11973;52.098;7.582;2023-09-12T10:12:50;19.63;;;17.75;;
23590;SDS011;11973;52.098;7.582;2023-09-12T10:15:19;16.10;;;14.52;;
23590;SDS011;11973;52.098;7.582;2023-09-12T10:17:46;15.98;;;14.30;;
23590;SDS011;11973;52.098;7.582;2023-09-12T10:20:18;16.17;;;14.63;;
23590;SDS011;11973;52.098;7.582;2023-09-12T10:22:59;14.85;;;13.57;;
23590;SDS011;11973;52.098;7.582;2023-09-12T10:25:35;16.55;;;14.90;;
23590;SDS011;11973;52.098;7.582;2023-09-12T10:28:03;16.23;;;14.93;;
23590;SDS011;11973;52.098;7.582;2023-09-12T10:30:30;14.93;;;13.80;;
23590;SDS011;11973;52.098;7.582;2023-09-12T10:32:57;14.18;;;13.00;;
23590;SDS011;11973;52.098;7.582;2023-09-12T10:35:24;12.23;;;11.32;;
23590;SDS011;11973;52.098;7.582;2023-09-12T10:37:50;12.75;;;11.80;;
23590;SDS011;11973;52.098;7.582;2023-09-12T10:40:18;10.93;;;10.18;;
23590;SDS011;11973;52.098;7.582;2023-09-12T10:42:47;11.02;;;10.20;;
23590;SDS011;11973;52.098;7.582;2023-09-12T10:45:14;10.13;;;9.52;;
23590;SDS011;11973;52.098;7.582;2023-09-12T10:47:41;10.65;;;9.95;;
23590;SDS011;11973;52.098;7.582;2023-09-12T10:50:07;10.07;;;9.48;;
23590;SDS011;11973;52.098;7.582;2023-09-12T10:52:33;9.65;;;8.95;;
23590;SDS011;11973;52.098;7.582;2023-09-12T10:55:04;9.25;;;8.65;;
23590;SDS011;11973;52.098;7.582;2023-09-12T10:57:31;8.50;;;7.88;;
23590;SDS011;11973;52.098;7.582;2023-09-12T11:02:39;8.02;;;7.63;;
23590;SDS011;11973;52.098;7.582;2023-09-12T11:05:06;7.57;;;7.30;;
23590;SDS011;11973;52.098;7.582;2023-09-12T11:07:55;8.95;;;8.25;;
23590;SDS011;11973;52.098;7.582;2023-09-12T11:10:26;8.40;;;7.90;;
23590;SDS011;11973;52.098;7.582;2023-09-12T11:12:53;9.20;;;8.70;;
23590;SDS011;11973;52.098;7.582;2023-09-12T11:15:21;8.75;;;8.38;;
23590;SDS011;11973;52.098;7.582;2023-09-12T11:17:49;8.45;;;8.07;;
23590;SDS011;11973;52.098;7.582;2023-09-12T11:20:24;7.95;;;7.53;;
23590;SDS011;11973;52.098;7.582;2023-09-12T11:22:50;7.45;;;7.15;;
23590;SDS011;11973;52.098;7.582;2023-09-12T11:25:18;7.03;;;6.75;;
23590;SDS011;11973;52.098;7.582;2023-09-12T11:30:20;8.50;;;7.95;;
23590;SDS011;11973;52.098;7.582;2023-09-12T11:32:51;7.80;;;7.47;;
23590;SDS011;11973;52.098;7.582;2023-09-12T11:35:23;7.13;;;6.93;;
23590;SDS011;11973;52.098;7.582;2023-09-12T11:37:57;6.93;;;6.68;;
23590;SDS011;11973;52.098;7.582;2023-09-12T11:42:59;6.40;;;6.20;;
23590;SDS011;11973;52.098;7.582;2023-09-12T11:45:26;6.63;;;6.43;;
23590;SDS011;11973;52.098;7.582;2023-09-12T11:47:54;5.90;;;5.80;;
23590;SDS011;11973;52.098;7.582;2023-09-12T11:50:29;6.47;;;6.28;;
23590;SDS011;11973;52.098;7.582;2023-09-12T11:53:00;8.30;;;6.72;;
23590;SDS011;11973;52.098;7.582;2023-09-12T11:55:31;6.05;;;5.95;;
23590;SDS011;11973;52.098;7.582;2023-09-12T11:57:57;7.45;;;7.20;;
23590;SDS011;11973;52.098;7.582;2023-09-12T12:00:23;7.45;;;7.13;;
23590;SDS011;11973;52.098;7.582;2023-09-12T12:02:52;6.90;;;6.60;;
23590;SDS011;11973;52.098;7.582;2023-09-12T12:05:21;8.18;;;7.68;;
23590;SDS011;11973;52.098;7.582;2023-09-12T12:07:48;7.88;;;7.65;;
23590;SDS011;11973;52.098;7.582;2023-09-12T12:10:14;9.02;;;8.30;;
23590;SDS011;11973;52.098;7.582;2023-09-12T12:12:44;8.68;;;8.07;;
23590;SDS011;11973;52.098;7.582;2023-09-12T12:15:11;7.05;;;6.82;;
23590;SDS011;11973;52.098;7.582;2023-09-12T12:17:37;7.10;;;6.88;;
23590;SDS011;11973;52.098;7.582;2023-09-12T12:20:09;6.53;;;5.93;;
23590;SDS011;11973;52.098;7.582;2023-09-12T12:22:38;6.55;;;6.35;;
23590;SDS011;11973;52.098;7.582;2023-09-12T12:25:05;5.93;;;5.70;;
23590;SDS011;11973;52.098;7.582;2023-09-12T12:27:34;6.50;;;6.20;;
23590;SDS011;11973;52.098;7.582;2023-09-12T12:30:07;6.07;;;5.88;;
23590;SDS011;11973;52.098;7.582;2023-09-12T12:32:41;6.03;;;5.93;;
23590;SDS011;11973;52.098;7.582;2023-09-12T12:35:16;5.57;;;5.47;;
23590;SDS011;11973;52.098;7.582;2023-09-12T12:37:43;5.45;;;5.32;;
23590;SDS011;11973;52.098;7.582;2023-09-12T12:40:13;5.05;;;4.95;;
23590;SDS011;11973;52.098;7.582;2023-09-12T12:42:39;5.57;;;5.38;;
23590;SDS011;11973;52.098;7.582;2023-09-12T12:45:15;5.43;;;5.25;;
23590;SDS011;11973;52.098;7.582;2023-09-12T12:47:42;5.20;;;4.95;;
23590;SDS011;11973;52.098;7.582;2023-09-12T12:50:19;5.22;;;5.10;;
23590;SDS011;11973;52.098;7.582;2023-09-12T12:52:46;4.75;;;4.75;;
23590;SDS011;11973;52.098;7.582;2023-09-12T12:55:14;4.65;;;4.60;;
23590;SDS011;11973;52.098;7.582;2023-09-12T12:57:42;5.13;;;5.07;;
23590;SDS011;11973;52.098;7.582;2023-09-12T13:00:12;4.82;;;4.68;;
23590;SDS011;11973;52.098;7.582;2023-09-12T13:02:40;4.95;;;4.75;;
23590;SDS011;11973;52.098;7.582;2023-09-12T13:05:19;4.75;;;4.65;;
23590;SDS011;11973;52.098;7.582;2023-09-12T13:07:46;5.22;;;5.10;;
23590;SDS011;11973;52.098;7.582;2023-09-12T13:10:12;5.22;;;5.03;;
23590;SDS011;11973;52.098;7.582;2023-09-12T13:12:38;4.72;;;4.53;;
23590;SDS011;11973;52.098;7.582;2023-09-12T13:15:04;4.82;;;4.55;;
23590;SDS011;11973;52.098;7.582;2023-09-12T13:17:30;4.47;;;4.38;;
23590;SDS011;11973;52.098;7.582;2023-09-12T13:19:56;4.63;;;4.45;;
23590;SDS011;11973;52.098;7.582;2023-09-12T13:22:21;5.00;;;4.90;;
23590;SDS011;11973;52.098;7.582;2023-09-12T13:24:48;4.60;;;4.47;;
23590;SDS011;11973;52.098;7.582;2023-09-12T13:27:14;5.15;;;5.00;;
23590;SDS011;11973;52.098;7.582;2023-09-12T13:29:40;5.20;;;4.90;;
23590;SDS011;11973;52.098;7.582;2023-09-12T13:32:05;5.45;;;5.20;;
23590;SDS011;11973;52.098;7.582;2023-09-12T13:34:31;4.65;;;4.45;;
23590;SDS011;11973;52.098;7.582;2023-09-12T13:36:57;5.03;;;4.93;;
23590;SDS011;11973;52.098;7.582;2023-09-12T13:39:23;5.07;;;5.00;;
23590;SDS011;11973;52.098;7.582;2023-09-12T13:41:49;4.63;;;4.53;;
23590;SDS011;11973;52.098;7.582;2023-09-12T13:44:16;4.55;;;4.35;;
23590;SDS011;11973;52.098;7.582;2023-09-12T13:46:42;4.63;;;4.53;;
23590;SDS011;11973;52.098;7.582;2023-09-12T13:49:11;4.40;;;4.25;;
23590;SDS011;11973;52.098;7.582;2023-09-12T13:51:37;4.32;;;4.22;;
23590;SDS011;11973;52.098;7.582;2023-09-12T13:54:03;4.05;;;3.85;;
23590;SDS011;11973;52.098;7.582;2023-09-12T13:56:29;3.42;;;3.38;;
23590;SDS011;11973;52.098;7.582;2023-09-12T13:58:54;4.40;;;4.18;;
23590;SDS011;11973;52.098;7.582;2023-09-12T14:01:20;4.22;;;4.22;;
23590;SDS011;11973;52.098;7.582;2023-09-12T14:03:47;4.40;;;4.20;;
23590;SDS011;11973;52.098;7.582;2023-09-12T14:06:13;4.60;;;4.50;;
23590;SDS011;11973;52.098;7.582;2023-09-12T14:08:39;4.35;;;4.25;;
23590;SDS011;11973;52.098;7.582;2023-09-12T14:11:05;4.30;;;4.00;;
23590;SDS011;11973;52.098;7.582;2023-09-12T14:13:30;4.13;;;3.92;;
23590;SDS011;11973;52.098;7.582;2023-09-12T14:15:56;4.18;;;4.15;;
23590;SDS011;11973;52.098;7.582;2023-09-12T14:18:22;3.78;;;3.70;;
23590;SDS011;11973;52.098;7.582;2023-09-12T14:20:47;4.50;;;4.40;;
23590;SDS011;11973;52.098;7.582;2023-09-12T14:23:14;4.10;;;3.95;;
23590;SDS011;11973;52.098;7.582;2023-09-12T14:25:41;4.88;;;4.07;;
23590;SDS011;11973;52.098;7.582;2023-09-12T14:28:07;4.22;;;4.13;;
23590;SDS011;11973;52.098;7.582;2023-09-12T14:30:33;4.43;;;4.22;;
23590;SDS011;11973;52.098;7.582;2023-09-12T14:33:02;4.10;;;4.00;;
23590;SDS011;11973;52.098;7.582;2023-09-12T14:35:28;4.50;;;4.40;;
23590;SDS011;11973;52.098;7.582;2023-09-12T14:37:54;4.00;;;4.00;;
23590;SDS011;11973;52.098;7.582;2023-09-12T14:40:21;3.90;;;3.80;;
23590;SDS011;11973;52.098;7.582;2023-09-12T14:42:49;4.10;;;4.00;;
23590;SDS011;11973;52.098;7.582;2023-09-12T14:45:15;4.28;;;4.13;;
23590;SDS011;11973;52.098;7.582;2023-09-12T14:47:41;3.53;;;3.53;;
23590;SDS011;11973;52.098;7.582;2023-09-12T14:50:07;3.30;;;3.10;;
23590;SDS011;11973;52.098;7.582;2023-09-12T14:52:33;3.53;;;3.53;;
23590;SDS011;11973;52.098;7.582;2023-09-12T14:54:59;3.25;;;3.25;;
23590;SDS011;11973;52.098;7.582;2023-09-12T14:57:25;3.38;;;3.20;;
23590;SDS011;11973;52.098;7.582;2023-09-12T14:59:51;3.88;;;3.50;;
23590;SDS011;11973;52.098;7.582;2023-09-12T15:02:17;3.10;;;3.10;;
23590;SDS011;11973;52.098;7.582;2023-09-12T15:04:43;2.95;;;2.85;;
23590;SDS011;11973;52.098;7.582;2023-09-12T15:07:08;2.35;;;2.35;;
23590;SDS011;11973;52.098;7.582;2023-09-12T15:09:34;2.80;;;2.70;;
23590;SDS011;11973;52.098;7.582;2023-09-12T15:12:00;3.08;;;2.90;;
23590;SDS011;11973;52.098;7.582;2023-09-12T15:14:26;2.70;;;2.60;;
23590;SDS011;11973;52.098;7.582;2023-09-12T15:16:51;2.90;;;2.80;;
23590;SDS011;11973;52.098;7.582;2023-09-12T15:19:17;5.05;;;2.75;;
23590;SDS011;11973;52.098;7.582;2023-09-12T15:21:43;3.65;;;2.80;;
23590;SDS011;11973;52.098;7.582;2023-09-12T15:24:09;3.10;;;2.97;;
23590;SDS011;11973;52.098;7.582;2023-09-12T15:26:34;2.88;;;2.88;;
23590;SDS011;11973;52.098;7.582;2023-09-12T15:29:00;3.25;;;3.25;;
23590;SDS011;11973;52.098;7.582;2023-09-12T15:31:26;3.17;;;2.97;;
23590;SDS011;11973;52.098;7.582;2023-09-12T15:33:53;3.42;;;3.38;;
23590;SDS011;11973;52.098;7.582;2023-09-12T15:36:21;3.95;;;3.70;;
23590;SDS011;11973;52.098;7.582;2023-09-12T15:38:47;4.07;;;3.83;;
23590;SDS011;11973;52.098;7.582;2023-09-12T15:41:12;3.50;;;3.40;;
23590;SDS011;11973;52.098;7.582;2023-09-12T15:43:39;3.60;;;3.50;;
23590;SDS011;11973;52.098;7.582;2023-09-12T15:46:06;3.90;;;3.80;;
23590;SDS011;11973;52.098;7.582;2023-09-12T15:48:32;4.35;;;4.03;;
23590;SDS011;11973;52.098;7.582;2023-09-12T15:50:58;3.70;;;3.70;;
23590;SDS011;11973;52.098;7.582;2023-09-12T15:53:24;3.88;;;3.78;;
23590;SDS011;11973;52.098;7.582;2023-09-12T15:55:50;4.65;;;4.45;;
23590;SDS011;11973;52.098;7.582;2023-09-12T15:58:17;4.30;;;4.10;;
23590;SDS011;11973;52.098;7.582;2023-09-12T16:00:43;3.45;;;3.45;;
23590;SDS011;11973;52.098;7.582;2023-09-12T16:03:08;4.20;;;4.10;;
23590;SDS011;11973;52.098;7.582;2023-09-12T16:05:34;4.13;;;3.92;;
23590;SDS011;11973;52.098;7.582;2023-09-12T16:08:00;4.30;;;4.30;;
23590;SDS011;11973;52.098;7.582;2023-09-12T16:10:26;5.05;;;4.65;;
23590;SDS011;11973;52.098;7.582;2023-09-12T16:12:51;4.40;;;4.20;;
23590;SDS011;11973;52.098;7.582;2023-09-12T16:15:17;4.38;;;4.38;;
23590;SDS011;11973;52.098;7.582;2023-09-12T16:17:43;3.85;;;3.85;;
23590;SDS011;11973;52.098;7.582;2023-09-12T16:20:10;4.05;;;3.85;;
23590;SDS011;11973;52.098;7.582;2023-09-12T16:22:38;4.65;;;4.45;;
23590;SDS011;11973;52.098;7.582;2023-09-12T16:25:05;4.57;;;4.47;;
23590;SDS011;11973;52.098;7.582;2023-09-12T16:27:31;4.47;;;4.18;;
23590;SDS011;11973;52.098;7.582;2023-09-12T16:29:57;4.88;;;4.68;;
23590;SDS011;11973;52.098;7.582;2023-09-12T16:32:23;4.97;;;4.88;;
23590;SDS011;11973;52.098;7.582;2023-09-12T16:34:48;5.00;;;4.90;;
23590;SDS011;11973;52.098;7.582;2023-09-12T16:37:14;4.40;;;4.20;;
23590;SDS011;11973;52.098;7.582;2023-09-12T16:39:40;4.70;;;4.60;;
23590;SDS011;11973;52.098;7.582;2023-09-12T16:42:10;5.43;;;5.13;;
23590;SDS011;11973;52.098;7.582;2023-09-12T16:44:36;5.13;;;5.03;;
23590;SDS011;11973;52.098;7.582;2023-09-12T16:47:02;4.95;;;4.75;;
23590;SDS011;11973;52.098;7.582;2023-09-12T16:49:29;4.82;;;4.60;;
23590;SDS011;11973;52.098;7.582;2023-09-12T16:51:58;5.22;;;5.10;;
23590;SDS011;11973;52.098;7.582;2023-09-12T16:54:24;5.40;;;5.00;;
23590;SDS011;11973;52.098;7.582;2023-09-12T16:56:50;5.57;;;5.35;;
23590;SDS011;11973;52.098;7.582;2023-09-12T16:59:16;5.18;;;4.93;;
23590;SDS011;11973;52.098;7.582;2023-09-12T17:01:41;5.18;;;4.93;;
23590;SDS011;11973;52.098;7.582;2023-09-12T17:04:07;5.45;;;5.15;;
23590;SDS011;11973;52.098;7.582;2023-09-12T17:06:34;5.15;;;5.05;;
23590;SDS011;11973;52.098;7.582;2023-09-12T17:09:00;5.43;;;5.25;;
23590;SDS011;11973;52.098;7.582;2023-09-12T17:11:28;5.22;;;5.13;;
23590;SDS011;11973;52.098;7.582;2023-09-12T17:13:54;5.47;;;5.38;;
23590;SDS011;11973;52.098;7.582;2023-09-12T17:16:19;5.35;;;5.25;;
23590;SDS011;11973;52.098;7.582;2023-09-12T17:18:45;5.60;;;5.45;;
23590;SDS011;11973;52.098;7.582;2023-09-12T17:21:11;6.03;;;5.80;;
23590;SDS011;11973;52.098;7.582;2023-09-12T17:23:37;5.43;;;5.20;;
23590;SDS011;11973;52.098;7.582;2023-09-12T17:26:03;5.57;;;5.47;;
23590;SDS011;11973;52.098;7.582;2023-09-12T17:28:29;5.60;;;5.40;;
23590;SDS011;11973;52.098;7.582;2023-09-12T17:30:54;5.90;;;5.47;;
23590;SDS011;11973;52.098;7.582;2023-09-12T17:33:20;5.45;;;5.35;;
23590;SDS011;11973;52.098;7.582;2023-09-12T17:35:46;6.18;;;5.63;;
23590;SDS011;11973;52.098;7.582;2023-09-12T17:38:11;6.15;;;5.95;;
23590;SDS011;11973;52.098;7.582;2023-09-12T17:40:37;5.93;;;5.70;;
23590;SDS011;11973;52.098;7.582;2023-09-12T17:43:03;6.20;;;5.85;;
23590;SDS011;11973;52.098;7.582;2023-09-12T17:45:29;5.57;;;5.38;;
23590;SDS011;11973;52.098;7.582;2023-09-12T17:47:55;6.25;;;5.65;;
23590;SDS011;11973;52.098;7.582;2023-09-12T17:50:21;6.82;;;6.15;;
23590;SDS011;11973;52.098;7.582;2023-09-12T17:52:47;6.15;;;5.90;;
23590;SDS011;11973;52.098;7.582;2023-09-12T17:55:13;7.95;;;7.00;;
23590;SDS011;11973;52.098;7.582;2023-09-12T17:57:39;7.28;;;6.97;;
23590;SDS011;11973;52.098;7.582;2023-09-12T18:00:05;7.03;;;6.75;;
23590;SDS011;11973;52.098;7.582;2023-09-12T18:02:37;7.55;;;6.88;;
23590;SDS011;11973;52.098;7.582;2023-09-12T18:05:03;7.00;;;6.43;;
23590;SDS011;11973;52.098;7.582;2023-09-12T18:07:29;7.32;;;7.00;;
23590;SDS011;11973;52.098;7.582;2023-09-12T18:09:55;6.70;;;6.40;;
23590;SDS011;11973;52.098;7.582;2023-09-12T18:12:20;7.47;;;7.05;;
23590;SDS011;11973;52.098;7.582;2023-09-12T18:14:46;7.10;;;6.45;;
23590;SDS011;11973;52.098;7.582;2023-09-12T18:17:12;7.78;;;7.10;;
23590;SDS011;11973;52.098;7.582;2023-09-12T18:19:39;7.30;;;6.90;;
23590;SDS011;11973;52.098;7.582;2023-09-12T18:22:05;7.82;;;7.03;;
23590;SDS011;11973;52.098;7.582;2023-09-12T18:24:31;8.00;;;7.40;;
23590;SDS011;11973;52.098;7.582;2023-09-12T18:26:57;7.72;;;6.95;;
23590;SDS011;11973;52.098;7.582;2023-09-12T18:29:22;7.70;;;6.97;;
23590;SDS011;11973;52.098;7.582;2023-09-12T18:31:49;8.60;;;7.53;;
23590;SDS011;11973;52.098;7.582;2023-09-12T18:34:15;9.20;;;8.60;;
23590;SDS011;11973;52.098;7.582;2023-09-12T18:36:41;7.43;;;7.13;;
23590;SDS011;11973;52.098;7.582;2023-09-12T18:39:08;7.25;;;6.88;;
23590;SDS011;11973;52.098;7.582;2023-09-12T18:41:34;8.02;;;7.47;;
23590;SDS011;11973;52.098;7.582;2023-09-12T18:44:00;7.55;;;7.03;;
23590;SDS011;11973;52.098;7.582;2023-09-12T18:46:27;8.25;;;7.75;;
23590;SDS011;11973;52.098;7.582;2023-09-12T18:48:53;7.88;;;7.38;;
23590;SDS011;11973;52.098;7.582;2023-09-12T18:51:19;8.18;;;7.35;;
23590;SDS011;11973;52.098;7.582;2023-09-12T18:53:45;7.28;;;6.85;;
23590;SDS011;11973;52.098;7.582;2023-09-12T18:56:12;7.85;;;7.43;;
23590;SDS011;11973;52.098;7.582;2023-09-12T18:58:38;8.52;;;8.02;;